Time;durP1;ratioP1;P1;durP2;ratioP2;P2;SDS_P1;SDS_P2;PMS_P1;PMS_P2;Temp;Humidity;BMP_temperature;BMP_pressure;BME280_temperature;BME280_humidity;BME280_pressure;Samples;Min_cycle;Max_cycle;Signal;HPM_P1;HPM_P2
2021/01/16 00:00:24;;;;;;;29.80;17.63;;;0.70;66.30;;;;;;5045198;28;20341;-82
2021/01/16 00:02:50;;;;;;;27.97;17.03;;;0.70;65.80;;;;;;5075983;28;20279;-82
2021/01/16 00:05:19;;;;;;;32.33;18.83;;;0.70;66.40;;;;;;5075348;28;20270;-82
2021/01/16 00:07:46;;;;;;;31.37;20.27;;;0.70;66.30;;;;;;5072983;28;20173;-82
2021/01/16 00:10:14;;;;;;;32.30;18.33;;;0.80;66.50;;;;;;5073410;28;20365;-83
2021/01/16 00:12:41;;;;;;;30.67;19.87;;;0.80;66.60;;;;;;5060269;28;20286;-83
2021/01/16 00:15:07;;;;;;;34.17;19.30;;;0.80;66.20;;;;;;5061183;28;20255;-83
2021/01/16 00:17:33;;;;;;;35.73;20.80;;;0.80;66.20;;;;;;5072060;28;20267;-83
2021/01/16 00:19:59;;;;;;;41.50;23.70;;;0.80;66.10;;;;;;5068130;28;20277;-83
2021/01/16 00:22:25;;;;;;;32.30;21.07;;;0.70;66.10;;;;;;5066701;28;20017;-83
2021/01/16 00:24:50;;;;;;;36.90;19.47;;;0.80;66.10;;;;;;5070525;28;20321;-83
2021/01/16 00:27:16;;;;;;;35.03;20.87;;;0.70;65.90;;;;;;5060816;28;20089;-83
2021/01/16 00:29:42;;;;;;;34.77;21.60;;;0.70;66.00;;;;;;5074152;28;20082;-83
2021/01/16 00:32:07;;;;;;;33.70;20.30;;;0.70;66.10;;;;;;5055830;28;20567;-82
2021/01/16 00:34:33;;;;;;;34.47;19.53;;;0.70;66.20;;;;;;5066590;28;20025;-82
2021/01/16 00:36:59;;;;;;;39.03;23.83;;;0.60;66.10;;;;;;5073805;28;20020;-82
2021/01/16 00:39:24;;;;;;;36.03;22.97;;;0.60;66.40;;;;;;5067998;28;20548;-82
2021/01/16 00:41:50;;;;;;;34.77;21.53;;;0.70;66.50;;;;;;5069698;28;20021;-82
2021/01/16 00:44:16;;;;;;;32.57;20.87;;;0.70;66.30;;;;;;5070794;28;20028;-82
2021/01/16 00:46:41;;;;;;;37.67;20.23;;;0.70;66.30;;;;;;5062063;28;20476;-82
2021/01/16 00:49:07;;;;;;;33.13;19.10;;;0.70;66.20;;;;;;5059490;28;20099;-82
2021/01/16 00:51:33;;;;;;;32.17;19.93;;;0.60;66.10;;;;;;5061472;28;20062;-82
2021/01/16 00:53:58;;;;;;;30.53;18.53;;;0.60;66.30;;;;;;5059898;28;20146;-82
2021/01/16 00:56:24;;;;;;;32.10;18.20;;;0.60;66.50;;;;;;5067424;28;20025;-82
2021/01/16 00:58:49;;;;;;;27.40;18.03;;;0.70;66.50;;;;;;5063973;28;20021;-82
2021/01/16 01:01:15;;;;;;;31.80;19.17;;;0.70;66.30;;;;;;5070942;28;20483;-82
2021/01/16 01:03:41;;;;;;;28.47;18.10;;;0.70;66.30;;;;;;5070616;28;20452;-82
2021/01/16 01:06:06;;;;;;;31.43;18.37;;;0.80;66.20;;;;;;5057633;28;20036;-82
2021/01/16 01:08:32;;;;;;;31.67;18.53;;;0.80;65.90;;;;;;5059098;28;20120;-82
2021/01/16 01:10:58;;;;;;;30.10;17.77;;;0.70;65.80;;;;;;5069755;28;20173;-83
2021/01/16 01:13:24;;;;;;;29.40;18.47;;;0.70;66.10;;;;;;5063993;28;20383;-83
2021/01/16 01:15:50;;;;;;;27.00;17.93;;;0.70;66.20;;;;;;5072417;28;20274;-83
2021/01/16 01:18:16;;;;;;;34.93;20.07;;;0.70;66.30;;;;;;5064663;28;20280;-83
2021/01/16 01:20:41;;;;;;;33.83;19.90;;;0.70;66.20;;;;;;5075403;28;20028;-83
2021/01/16 01:23:07;;;;;;;30.90;19.03;;;0.60;66.00;;;;;;5070030;28;20021;-83
2021/01/16 01:25:33;;;;;;;32.93;18.53;;;0.60;66.10;;;;;;5057136;28;20052;-83
2021/01/16 01:28:01;;;;;;;35.80;21.13;;;0.60;66.40;;;;;;5062286;28;20032;-82
2021/01/16 01:30:29;;;;;;;32.60;18.77;;;0.50;66.30;;;;;;5057363;28;20104;-82
2021/01/16 01:32:55;;;;;;;29.13;17.17;;;0.50;66.30;;;;;;5064346;28;20291;-82
2021/01/16 01:35:22;;;;;;;27.83;17.53;;;0.50;66.60;;;;;;5062428;28;20271;-82
2021/01/16 01:37:53;;;;;;;26.17;17.30;;;0.60;66.50;;;;;;5058802;28;20291;-82
2021/01/16 01:40:21;;;;;;;32.27;19.43;;;0.60;66.50;;;;;;5069123;28;20289;-82
2021/01/16 01:42:49;;;;;;;27.67;17.57;;;0.70;66.40;;;;;;5067478;28;20315;-82
2021/01/16 01:45:16;;;;;;;30.53;17.90;;;0.70;66.30;;;;;;5060377;28;20658;-82
2021/01/16 01:47:45;;;;;;;31.60;19.23;;;0.70;66.40;;;;;;5075534;28;20331;-82
2021/01/16 01:50:13;;;;;;;38.30;20.80;;;0.70;66.40;;;;;;5072119;28;22181;-82
2021/01/16 01:52:40;;;;;;;35.13;20.50;;;0.70;66.30;;;;;;5069714;28;20292;-82
2021/01/16 01:55:08;;;;;;;31.13;19.27;;;0.70;66.20;;;;;;5074303;28;20813;-83
2021/01/16 01:57:38;;;;;;;38.50;19.00;;;0.70;66.40;;;;;;5062606;28;20283;-83
2021/01/16 02:00:07;;;;;;;30.20;18.93;;;0.70;66.50;;;;;;5076943;28;20306;-83
2021/01/16 02:02:37;;;;;;;28.83;18.33;;;0.70;66.40;;;;;;5074843;28;20290;-83
2021/01/16 02:05:06;;;;;;;29.83;18.83;;;0.70;66.40;;;;;;5063157;28;22474;-83
2021/01/16 02:07:38;;;;;;;40.27;22.00;;;0.70;66.40;;;;;;5064050;28;20286;-82
2021/01/16 02:10:24;;;;;;;33.95;19.05;;;0.70;66.40;;;;;;5077314;28;20748;-83
2021/01/16 02:12:53;;;;;;;27.03;16.80;;;0.70;66.40;;;;;;5061373;28;20044;-83
2021/01/16 02:15:34;;;;;;;28.00;17.13;;;0.70;66.50;;;;;;5070525;28;21251;-83
2021/01/16 02:18:24;;;;;;;28.00;18.13;;;0.70;66.50;;;;;;5074058;28;20637;-83
2021/01/16 02:20:53;;;;;;;26.83;16.27;;;0.70;66.40;;;;;;5073908;28;20283;-83
2021/01/16 02:23:27;;;;;;;27.67;15.80;;;0.70;66.40;;;;;;5065022;28;20322;-83
2021/01/16 02:26:12;;;;;;;25.10;15.73;;;0.70;66.50;;;;;;5058679;28;20307;-82
2021/01/16 02:28:45;;;;;;;23.70;15.87;;;0.80;66.50;;;;;;5072594;28;20037;-83
2021/01/16 02:31:12;;;;;;;20.90;13.67;;;0.80;66.40;;;;;;5074100;28;20295;-83
2021/01/16 02:33:41;;;;;;;20.57;13.90;;;0.70;66.50;;;;;;5067866;28;20394;-83
2021/01/16 02:36:18;;;;;;;21.30;14.63;;;0.80;66.80;;;;;;5067995;28;20271;-83
2021/01/16 02:39:03;;;;;;;26.83;16.50;;;0.80;66.60;;;;;;5071447;28;20270;-83
2021/01/16 02:41:41;;;;;;;29.23;17.97;;;0.80;66.50;;;;;;5056409;28;20281;-83
2021/01/16 02:44:16;;;;;;;32.73;19.87;;;0.80;66.40;;;;;;5068247;28;20667;-83
2021/01/16 02:46:51;;;;;;;30.57;19.00;;;0.80;66.40;;;;;;5063658;28;20263;-83
2021/01/16 02:49:31;;;;;;;29.83;18.70;;;0.80;66.60;;;;;;5061670;28;20815;-83
2021/01/16 02:52:09;;;;;;;31.03;19.13;;;0.80;66.50;;;;;;5070380;28;20035;-83
2021/01/16 02:54:38;;;;;;;31.13;18.70;;;0.80;66.40;;;;;;5076064;28;20263;-83
2021/01/16 02:57:05;;;;;;;30.10;19.17;;;0.80;66.40;;;;;;5074479;28;21262;-83
2021/01/16 02:59:37;;;;;;;33.57;19.60;;;0.70;66.40;;;;;;5065761;28;20758;-83
2021/01/16 03:02:05;;;;;;;35.88;20.38;;;0.70;66.50;;;;;;5068762;28;20278;-83
2021/01/16 03:04:31;;;;;;;27.60;17.83;;;0.70;66.40;;;;;;5058164;28;20032;-83
2021/01/16 03:06:59;;;;;;;28.50;17.80;;;0.70;66.50;;;;;;5056544;28;20610;-83
2021/01/16 03:09:31;;;;;;;26.07;17.13;;;0.70;66.50;;;;;;5063939;28;20271;-83
2021/01/16 03:11:57;;;;;;;25.02;16.95;;;0.70;66.70;;;;;;5060110;28;20772;-83
2021/01/16 03:14:26;;;;;;;28.07;17.70;;;0.80;66.80;;;;;;5077197;28;20036;-83
2021/01/16 03:17:11;;;;;;;24.03;15.97;;;0.80;66.60;;;;;;5076269;28;20275;-83
2021/01/16 03:19:48;;;;;;;22.23;14.63;;;0.80;66.40;;;;;;5056095;28;20366;-83
2021/01/16 03:22:23;;;;;;;21.07;13.90;;;0.80;66.70;;;;;;5071328;28;20720;-83
2021/01/16 03:24:50;;;;;;;22.80;14.97;;;0.80;66.70;;;;;;5065321;28;20610;-83
2021/01/16 03:27:17;;;;;;;23.13;14.47;;;0.80;66.70;;;;;;5060962;28;20306;-83
2021/01/16 03:29:43;;;;;;;23.90;14.60;;;0.80;66.60;;;;;;5075397;28;20279;-83
2021/01/16 03:32:09;;;;;;;22.20;13.87;;;0.80;66.60;;;;;;5058426;28;20060;-83
2021/01/16 03:34:36;;;;;;;19.30;12.70;;;0.80;66.70;;;;;;5077326;28;20278;-83
2021/01/16 03:37:02;;;;;;;19.37;11.60;;;0.80;66.60;;;;;;5068217;28;20318;-83
2021/01/16 03:39:28;;;;;;;20.67;13.40;;;0.80;66.70;;;;;;5065076;28;20267;-83
2021/01/16 03:41:53;;;;;;;23.87;12.83;;;0.70;66.60;;;;;;5067457;28;20293;-83
2021/01/16 03:44:19;;;;;;;15.47;10.80;;;0.80;66.70;;;;;;5058295;28;20055;-83
2021/01/16 03:46:48;;;;;;;16.70;11.10;;;0.80;66.80;;;;;;5061537;28;20429;-82
2021/01/16 03:49:14;;;;;;;20.73;13.87;;;0.80;66.60;;;;;;5075027;28;20025;-82
2021/01/16 03:51:40;;;;;;;23.23;15.80;;;0.80;66.40;;;;;;5071222;28;20286;-83
2021/01/16 03:54:08;;;;;;;26.77;16.03;;;0.80;66.60;;;;;;5074827;28;20361;-83
2021/01/16 03:56:34;;;;;;;28.23;17.13;;;0.80;66.80;;;;;;5071270;28;20024;-83
2021/01/16 03:59:01;;;;;;;26.80;17.07;;;0.80;66.80;;;;;;5074747;28;20255;-83
2021/01/16 04:01:28;;;;;;;24.23;16.70;;;0.80;66.70;;;;;;5070586;28;20288;-83
2021/01/16 04:03:54;;;;;;;32.60;17.63;;;0.80;66.70;;;;;;5062800;28;20477;-83
2021/01/16 04:06:19;;;;;;;22.77;14.60;;;0.90;66.70;;;;;;5066566;28;20430;-83
2021/01/16 04:08:45;;;;;;;24.67;15.40;;;0.80;66.80;;;;;;5059423;28;20025;-83
2021/01/16 04:11:11;;;;;;;22.33;15.03;;;0.80;67.10;;;;;;5060923;28;20835;-84
2021/01/16 04:13:38;;;;;;;18.80;12.57;;;0.80;67.00;;;;;;5071414;28;20396;-84
2021/01/16 04:16:05;;;;;;;15.27;10.27;;;0.80;67.10;;;;;;5066937;28;20290;-83
2021/01/16 04:18:31;;;;;;;20.40;12.67;;;0.80;66.80;;;;;;5069636;28;20283;-83
2021/01/16 04:20:56;;;;;;;21.13;12.87;;;0.80;66.90;;;;;;5064639;28;20358;-83
2021/01/16 04:23:22;;;;;;;18.93;12.53;;;0.90;67.00;;;;;;5055446;28;20447;-83
2021/01/16 04:25:48;;;;;;;21.10;12.37;;;0.90;66.90;;;;;;5055967;28;20029;-83
2021/01/16 04:28:14;;;;;;;24.63;15.67;;;0.90;66.80;;;;;;5056637;28;20037;-83
2021/01/16 04:30:40;;;;;;;31.73;17.97;;;0.90;66.80;;;;;;5073607;28;20391;-83
2021/01/16 04:33:06;;;;;;;27.43;18.17;;;0.80;66.80;;;;;;5059364;28;20048;-83
2021/01/16 04:35:33;;;;;;;27.37;17.13;;;0.80;66.90;;;;;;5068331;28;20498;-83
2021/01/16 04:37:59;;;;;;;28.50;17.33;;;0.80;67.00;;;;;;5073585;28;20273;-83
2021/01/16 04:40:25;;;;;;;24.93;17.70;;;0.80;67.00;;;;;;5071850;28;20374;-83
2021/01/16 04:42:52;;;;;;;23.60;16.33;;;0.70;67.00;;;;;;5071881;28;20727;-83
2021/01/16 04:45:19;;;;;;;26.80;16.67;;;0.70;67.00;;;;;;5066095;28;20051;-83
2021/01/16 04:47:47;;;;;;;24.40;15.47;;;0.80;67.20;;;;;;5069775;28;20275;-83
2021/01/16 04:50:14;;;;;;;24.53;15.60;;;0.70;67.10;;;;;;5077802;28;20278;-83
2021/01/16 04:52:42;;;;;;;23.57;15.73;;;0.80;67.30;;;;;;5073546;28;20286;-83
2021/01/16 04:55:10;;;;;;;25.30;14.73;;;0.80;67.20;;;;;;5064405;28;20367;-83
2021/01/16 04:57:37;;;;;;;27.60;17.00;;;0.80;67.20;;;;;;5055550;28;20341;-83
2021/01/16 05:00:09;;;;;;;26.43;17.37;;;0.80;67.10;;;;;;5064753;28;20283;-83
2021/01/16 05:02:40;;;;;;;21.67;14.33;;;0.80;67.20;;;;;;5057472;28;20298;-83
2021/01/16 05:05:18;;;;;;;24.03;15.47;;;0.80;67.10;;;;;;5072493;28;20274;-83
2021/01/16 05:07:45;;;;;;;24.83;15.63;;;0.80;67.10;;;;;;5072926;28;20591;-83
2021/01/16 05:10:11;;;;;;;26.27;16.87;;;0.80;67.10;;;;;;5073619;28;20861;-83
2021/01/16 05:12:52;;;;;;;26.00;17.93;;;0.80;67.20;;;;;;5074262;28;20633;-83
2021/01/16 05:15:30;;;;;;;27.07;17.00;;;0.80;67.30;;;;;;5069773;28;20275;-83
2021/01/16 05:18:06;;;;;;;25.27;17.13;;;0.90;67.30;;;;;;5067708;28;20282;-83
2021/01/16 05:20:33;;;;;;;27.17;18.30;;;0.80;67.00;;;;;;5055642;28;20286;-82
2021/01/16 05:23:17;;;;;;;29.53;17.50;;;0.80;67.20;;;;;;5064661;28;20272;-82
2021/01/16 05:25:46;;;;;;;26.47;18.03;;;0.80;67.20;;;;;;5063895;28;20828;-82
2021/01/16 05:28:15;;;;;;;27.53;18.33;;;0.70;67.20;;;;;;5068518;28;20293;-82
2021/01/16 05:31:01;;;;;;;29.50;18.57;;;0.70;67.50;;;;;;5061188;28;20290;-82
2021/01/16 05:33:29;;;;;;;30.60;19.60;;;0.70;67.50;;;;;;5070561;28;20289;-82
2021/01/16 05:35:57;;;;;;;35.10;20.83;;;0.70;67.30;;;;;;5067862;28;21034;-82
2021/01/16 05:38:25;;;;;;;30.80;17.90;;;0.70;67.30;;;;;;5062038;28;20278;-82
2021/01/16 05:40:54;;;;;;;26.60;17.33;;;0.70;67.40;;;;;;5070750;28;20032;-82
2021/01/16 05:43:20;;;;;;;27.87;17.60;;;0.80;67.40;;;;;;5066440;28;20317;-82
2021/01/16 05:45:50;;;;;;;29.30;18.10;;;0.80;67.40;;;;;;5067959;28;20275;-82
2021/01/16 05:48:16;;;;;;;30.17;18.17;;;0.80;67.30;;;;;;5078384;28;20707;-82
2021/01/16 05:50:42;;;;;;;26.87;17.97;;;0.70;67.40;;;;;;5077629;28;20351;-82
2021/01/16 05:53:08;;;;;;;28.20;18.80;;;0.70;67.40;;;;;;5076541;28;20366;-82
2021/01/16 05:55:34;;;;;;;26.80;17.07;;;0.80;67.50;;;;;;5071029;28;20051;-82
2021/01/16 05:58:07;;;;;;;26.70;19.07;;;0.80;67.60;;;;;;5074665;28;20800;-82
2021/01/16 06:00:40;;;;;;;29.47;19.57;;;0.90;67.60;;;;;;5071564;28;20417;-82
2021/01/16 06:03:08;;;;;;;27.13;17.75;;;0.90;67.40;;;;;;5083209;28;20310;-82
2021/01/16 06:05:35;;;;;;;27.90;18.90;;;0.90;67.40;;;;;;5062052;28;20033;-82
2021/01/16 06:08:02;;;;;;;28.00;18.90;;;0.90;67.30;;;;;;5078682;28;20761;-83
2021/01/16 06:10:35;;;;;;;35.27;22.10;;;0.90;67.30;;;;;;5077953;28;20683;-82
2021/01/16 06:13:15;;;;;;;31.08;19.33;;;0.90;67.40;;;;;;5073599;28;20293;-82
2021/01/16 06:15:54;;;;;;;32.63;20.57;;;0.90;67.30;;;;;;5078860;28;20066;-82
2021/01/16 06:18:23;;;;;;;26.93;18.90;;;0.90;67.20;;;;;;5075187;28;20271;-82
2021/01/16 06:20:52;;;;;;;28.07;18.97;;;0.90;67.20;;;;;;5059430;28;20358;-83
2021/01/16 06:23:21;;;;;;;31.10;19.57;;;0.90;67.20;;;;;;5061098;28;20303;-82
2021/01/16 06:25:53;;;;;;;27.40;18.03;;;0.90;67.40;;;;;;5061635;28;20322;-82
2021/01/16 06:28:20;;;;;;;32.50;19.07;;;0.90;67.30;;;;;;5057715;28;20310;-82
2021/01/16 06:30:52;;;;;;;29.37;19.23;;;0.90;67.30;;;;;;5066809;28;20295;-82
2021/01/16 06:33:27;;;;;;;34.67;21.23;;;1.00;67.40;;;;;;5071881;28;20311;-82
2021/01/16 06:35:59;;;;;;;36.57;21.23;;;1.00;67.30;;;;;;5063287;28;20020;-82
2021/01/16 06:38:35;;;;;;;34.70;21.73;;;1.00;67.30;;;;;;5058924;28;20268;-83
2021/01/16 06:41:14;;;;;;;33.20;20.43;;;1.00;67.30;;;;;;5075352;28;20354;-83
2021/01/16 06:43:44;;;;;;;37.10;21.27;;;1.00;67.30;;;;;;5074619;28;20024;-83
2021/01/16 06:46:12;;;;;;;29.50;19.50;;;0.90;67.20;;;;;;5069424;28;20627;-82
2021/01/16 06:48:43;;;;;;;29.73;20.10;;;0.90;67.40;;;;;;5061828;28;20437;-83
2021/01/16 06:51:31;;;;;;;31.27;20.33;;;0.90;67.50;;;;;;5066232;28;20290;-82
2021/01/16 06:54:04;;;;;;;27.57;18.67;;;1.00;67.40;;;;;;5074722;28;20469;-82
2021/01/16 06:56:34;;;;;;;32.90;19.93;;;1.00;67.20;;;;;;5074301;28;20271;-82
2021/01/16 06:59:00;;;;;;;36.63;20.40;;;1.00;67.10;;;;;;5074444;28;20263;-82
2021/01/16 07:01:31;;;;;;;35.50;21.83;;;1.00;67.20;;;;;;5063746;28;20094;-82
2021/01/16 07:04:03;;;;;;;40.83;22.57;;;1.00;67.20;;;;;;5073284;28;20056;-82
2021/01/16 07:06:47;;;;;;;36.35;21.38;;;1.00;67.30;;;;;;5057045;28;20325;-81
2021/01/16 07:09:20;;;;;;;46.40;23.50;;;1.00;67.40;;;;;;5056941;28;20037;-82
2021/01/16 07:11:48;;;;;;;35.20;20.47;;;1.00;67.30;;;;;;5064779;28;20275;-82
2021/01/16 07:14:15;;;;;;;37.37;20.67;;;0.90;67.30;;;;;;5077326;28;20278;-82
2021/01/16 07:16:43;;;;;;;40.77;20.30;;;0.90;67.40;;;;;;5056490;28;20271;-82
2021/01/16 07:19:10;;;;;;;40.27;21.83;;;0.90;67.40;;;;;;5061246;28;20871;-82
2021/01/16 07:21:42;;;;;;;37.77;20.93;;;0.90;67.40;;;;;;5074873;28;20354;-82
2021/01/16 07:24:11;;;;;;;35.17;21.57;;;0.90;67.50;;;;;;5077869;28;20875;-82
2021/01/16 07:26:39;;;;;;;42.33;22.00;;;0.90;67.50;;;;;;5065756;28;20454;-83
2021/01/16 07:29:06;;;;;;;43.60;23.80;;;1.00;67.60;;;;;;5064379;28;20283;-83
2021/01/16 07:31:46;;;;;;;49.27;23.50;;;0.90;67.40;;;;;;5073600;28;20028;-83
2021/01/16 07:34:12;;;;;;;35.50;22.20;;;0.90;67.50;;;;;;5071010;28;20279;-83
2021/01/16 07:36:39;;;;;;;39.10;22.73;;;0.90;67.50;;;;;;5069274;28;20626;-82
2021/01/16 07:39:12;;;;;;;42.77;25.80;;;0.90;67.50;;;;;;5064140;28;20277;-82
2021/01/16 07:41:47;;;;;;;46.60;27.35;;;1.00;67.60;;;;;;5066491;28;20024;-82
2021/01/16 07:44:21;;;;;;;46.37;28.30;;;1.00;67.40;;;;;;5066032;28;20098;-82
2021/01/16 07:46:51;;;;;;;45.23;27.87;;;1.00;67.40;;;;;;5066663;28;20311;-82
2021/01/16 07:49:28;;;;;;;48.33;28.77;;;1.00;67.50;;;;;;5063397;28;20335;-82
2021/01/16 07:51:55;;;;;;;50.83;32.37;;;1.10;67.60;;;;;;5074077;28;20286;-82
2021/01/16 07:54:23;;;;;;;55.43;33.33;;;1.10;68.10;;;;;;5072939;28;20340;-82
2021/01/16 07:56:59;;;;;;;49.03;29.70;;;1.10;67.50;;;;;;5062647;28;20024;-81
2021/01/16 07:59:32;;;;;;;51.37;30.93;;;1.20;67.70;;;;;;5066955;28;20036;-82
2021/01/16 08:01:58;;;;;;;49.87;30.97;;;1.20;67.80;;;;;;5074798;28;20569;-82
2021/01/16 08:04:36;;;;;;;43.53;28.03;;;1.20;67.60;;;;;;5066617;28;20032;-81
2021/01/16 08:07:08;;;;;;;36.97;24.63;;;1.20;67.80;;;;;;5067807;28;20028;-82
2021/01/16 08:09:45;;;;;;;34.07;23.47;;;1.40;67.90;;;;;;5074999;28;20293;-82
2021/01/16 08:12:13;;;;;;;36.07;24.37;;;1.50;67.40;;;;;;5074429;28;20032;-82
2021/01/16 08:14:41;;;;;;;39.27;24.90;;;1.50;67.20;;;;;;5071830;28;20111;-82
2021/01/16 08:17:15;;;;;;;43.17;26.07;;;1.50;67.30;;;;;;5075388;28;20009;-82
2021/01/16 08:19:41;;;;;;;42.33;27.83;;;1.50;67.10;;;;;;5061445;28;20115;-82
2021/01/16 08:22:15;;;;;;;40.30;26.30;;;1.50;67.10;;;;;;5072210;28;20067;-82
2021/01/16 08:25:04;;;;;;;65.73;34.93;;;1.50;67.10;;;;;;5069964;28;20034;-82
2021/01/16 08:27:30;;;;;;;48.03;29.63;;;1.60;67.20;;;;;;5068351;28;20475;-82
2021/01/16 08:29:57;;;;;;;35.70;24.17;;;1.50;66.80;;;;;;5063050;28;20072;-82
2021/01/16 08:32:24;;;;;;;36.93;23.83;;;1.60;67.10;;;;;;5059139;28;20045;-82
2021/01/16 08:34:56;;;;;;;32.73;21.77;;;1.60;67.00;;;;;;5075181;28;20025;-82
2021/01/16 08:37:34;;;;;;;36.60;21.88;;;1.60;66.80;;;;;;5072669;28;20405;-82
2021/01/16 08:40:01;;;;;;;29.70;20.43;;;1.60;66.70;;;;;;5063361;28;20037;-82
2021/01/16 08:42:28;;;;;;;32.50;22.67;;;1.60;66.70;;;;;;5066402;28;20283;-82
2021/01/16 08:44:56;;;;;;;32.80;21.60;;;1.60;66.70;;;;;;5075037;28;20474;-82
2021/01/16 08:47:22;;;;;;;34.23;22.70;;;1.60;66.70;;;;;;5064801;28;20027;-82
2021/01/16 08:49:49;;;;;;;31.13;20.33;;;1.60;66.70;;;;;;5057866;28;20056;-82
2021/01/16 08:52:34;;;;;;;29.80;20.13;;;1.60;66.60;;;;;;5060448;28;20041;-82
2021/01/16 08:55:02;;;;;;;32.30;19.70;;;1.70;66.60;;;;;;5075113;28;20033;-82
2021/01/16 08:57:35;;;;;;;31.20;22.13;;;1.70;66.50;;;;;;5073333;28;20390;-82
2021/01/16 09:00:24;;;;;;;29.50;19.70;;;1.70;66.40;;;;;;5072033;28;20024;-82
2021/01/16 09:03:11;;;;;;;35.03;20.50;;;1.70;66.60;;;;;;5074979;28;20040;-82
2021/01/16 09:05:39;;;;;;;28.53;19.87;;;1.80;66.40;;;;;;5071907;28;20024;-82
2021/01/16 09:08:23;;;;;;;28.53;19.97;;;1.80;66.20;;;;;;5072758;28;20502;-82
2021/01/16 09:11:12;;;;;;;28.80;19.73;;;1.80;65.90;;;;;;5056837;28;20025;-82
2021/01/16 09:13:50;;;;;;;31.67;20.73;;;1.80;65.90;;;;;;5064502;28;20025;-82
2021/01/16 09:16:30;;;;;;;29.67;18.97;;;1.80;65.80;;;;;;5071485;28;20473;-82
2021/01/16 09:18:56;;;;;;;33.57;20.27;;;1.90;65.80;;;;;;5060111;28;20037;-82
2021/01/16 09:21:26;;;;;;;31.03;20.57;;;2.00;65.60;;;;;;5068258;28;20048;-82
2021/01/16 09:23:53;;;;;;;32.13;21.07;;;2.00;65.50;;;;;;5073522;28;20042;-82
2021/01/16 09:26:20;;;;;;;29.63;21.03;;;1.90;65.40;;;;;;5065450;28;20552;-82
2021/01/16 09:28:53;;;;;;;29.60;21.90;;;1.90;65.60;;;;;;5062350;28;20526;-82
2021/01/16 09:31:38;;;;;;;27.90;20.40;;;1.90;65.60;;;;;;5068625;28;20072;-82
2021/01/16 09:34:17;;;;;;;31.27;20.97;;;2.00;65.70;;;;;;5074905;28;20083;-82
2021/01/16 09:36:55;;;;;;;28.90;19.50;;;2.00;65.30;;;;;;5060169;28;20112;-82
2021/01/16 09:39:31;;;;;;;26.27;18.47;;;2.00;65.10;;;;;;5076033;28;20033;-82
2021/01/16 09:42:00;;;;;;;29.33;19.97;;;2.10;65.50;;;;;;5075546;28;20032;-82
2021/01/16 09:44:44;;;;;;;30.80;19.83;;;2.20;65.30;;;;;;5060520;28;20135;-82
2021/01/16 09:47:25;;;;;;;29.60;20.83;;;2.30;65.20;;;;;;5059089;28;20409;-82
2021/01/16 09:49:52;;;;;;;29.13;21.33;;;2.30;65.00;;;;;;5084992;28;20506;-82
2021/01/16 09:52:21;;;;;;;29.13;21.50;;;2.40;65.00;;;;;;5076051;28;20137;-82
2021/01/16 09:54:49;;;;;;;34.77;23.23;;;2.40;64.80;;;;;;5068557;28;20021;-82
2021/01/16 09:57:35;;;;;;;24.17;18.20;;;2.50;64.60;;;;;;5071354;28;20053;-82
2021/01/16 10:00:10;;;;;;;29.27;19.50;;;2.50;64.10;;;;;;5077026;28;20028;-82
2021/01/16 10:02:38;;;;;;;30.03;20.30;;;2.50;64.20;;;;;;5076787;28;20032;-81
2021/01/16 10:05:12;;;;;;;28.27;20.03;;;2.50;64.20;;;;;;5078575;28;20025;-81
2021/01/16 10:07:39;;;;;;;27.63;19.80;;;2.60;64.10;;;;;;5059346;28;20098;-82
2021/01/16 10:10:13;;;;;;;27.00;19.07;;;2.60;64.00;;;;;;5063541;28;20036;-82
2021/01/16 10:12:40;;;;;;;28.43;18.77;;;2.60;63.50;;;;;;5071571;28;20037;-82
2021/01/16 10:15:15;;;;;;;31.10;19.83;;;2.60;63.50;;;;;;5071769;28;20041;-82
2021/01/16 10:17:46;;;;;;;28.00;19.97;;;2.70;63.60;;;;;;5060081;28;20025;-82
2021/01/16 10:20:16;;;;;;;31.20;21.20;;;2.70;63.20;;;;;;5075631;28;20162;-82
2021/01/16 10:22:46;;;;;;;33.50;19.50;;;3.00;63.50;;;;;;5077904;28;20529;-82
2021/01/16 10:25:12;;;;;;;28.80;19.07;;;3.40;63.00;;;;;;5073151;28;20025;-82
2021/01/16 10:27:41;;;;;;;30.27;20.43;;;3.70;62.40;;;;;;5069848;28;20025;-82
2021/01/16 10:30:15;;;;;;;24.60;18.00;;;4.20;61.90;;;;;;5061577;28;20106;-81
2021/01/16 10:32:41;;;;;;;27.53;17.50;;;4.50;60.80;;;;;;5056683;28;20160;-81
2021/01/16 10:35:07;;;;;;;21.77;16.63;;;4.60;60.30;;;;;;5054808;28;20108;-81
2021/01/16 10:37:52;;;;;;;23.20;16.13;;;4.40;59.90;;;;;;5076956;28;20083;-81
2021/01/16 10:40:19;;;;;;;22.27;15.73;;;4.30;60.00;;;;;;5056091;28;20025;-81
2021/01/16 10:42:54;;;;;;;23.77;15.03;;;4.60;60.10;;;;;;5070562;28;20548;-82
2021/01/16 10:45:21;;;;;;;20.43;15.00;;;5.10;59.30;;;;;;5077933;28;20550;-82
2021/01/16 10:47:49;;;;;;;17.03;13.40;;;5.30;58.70;;;;;;5074931;28;20020;-82
2021/01/16 10:50:17;;;;;;;20.10;14.60;;;5.70;58.30;;;;;;5059395;28;20092;-82
2021/01/16 10:52:43;;;;;;;19.50;13.60;;;5.90;57.80;;;;;;5065735;28;20041;-81
2021/01/16 10:55:13;;;;;;;17.47;13.30;;;6.10;57.20;;;;;;5062936;28;20025;-82
2021/01/16 10:57:49;;;;;;;15.53;10.77;;;6.30;56.60;;;;;;5072604;28;20060;-82
2021/01/16 11:00:19;;;;;;;15.80;10.70;;;6.50;55.50;;;;;;5064583;28;20029;-82
2021/01/16 11:02:47;;;;;;;17.53;11.80;;;6.40;55.40;;;;;;5065130;28;20048;-82
2021/01/16 11:05:15;;;;;;;14.57;11.30;;;6.50;55.20;;;;;;5078456;28;20431;-82
2021/01/16 11:07:49;;;;;;;15.10;10.63;;;6.60;54.90;;;;;;5076502;28;20035;-82
2021/01/16 11:10:15;;;;;;;;;;;6.70;54.70;;;;;;5058599;28;20087;-82
2021/01/16 11:12:43;;;;;;;19.67;13.20;;;6.70;54.50;;;;;;5057869;28;19913;-82
2021/01/16 11:15:26;;;;;;;20.53;14.13;;;6.70;54.70;;;;;;5070793;28;20372;-82
2021/01/16 11:18:00;;;;;;;16.27;12.43;;;6.80;54.50;;;;;;5072888;28;20059;-82
2021/01/16 11:20:29;;;;;;;18.93;13.87;;;6.80;54.20;;;;;;5076636;28;20029;-82
2021/01/16 11:23:04;;;;;;;15.30;11.17;;;6.90;53.80;;;;;;5088684;28;20031;-82
2021/01/16 11:25:56;;;;;;;21.93;13.00;;;6.90;53.50;;;;;;5066673;28;20096;-82
2021/01/16 11:28:24;;;;;;;17.55;12.52;;;6.90;52.90;;;;;;5064149;28;20090;-82
2021/01/16 11:31:01;;;;;;;20.17;14.70;;;6.70;53.10;;;;;;5068282;28;20051;-82
2021/01/16 11:33:27;;;;;;;19.87;14.60;;;6.30;53.20;;;;;;5064008;28;20025;-82
2021/01/16 11:36:09;;;;;;;21.40;14.37;;;6.20;53.50;;;;;;5062034;28;20029;-82
2021/01/16 11:38:42;;;;;;;26.20;15.97;;;6.40;53.50;;;;;;5070460;28;20338;-83
2021/01/16 11:41:09;;;;;;;20.40;15.07;;;6.50;53.30;;;;;;5063814;28;20025;-82
2021/01/16 11:43:35;;;;;;;18.80;13.40;;;6.60;53.60;;;;;;5068672;28;20483;-82
2021/01/16 11:46:09;;;;;;;19.70;14.50;;;6.80;52.90;;;;;;5073452;28;20119;-83
2021/01/16 11:48:37;;;;;;;19.70;15.00;;;6.80;52.40;;;;;;5075800;28;20048;-83
2021/01/16 11:51:21;;;;;;;17.17;12.57;;;6.90;52.50;;;;;;5072062;28;20132;-82
2021/01/16 11:53:51;;;;;;;14.97;11.53;;;7.00;51.90;;;;;;5068549;28;20025;-82
2021/01/16 11:56:40;;;;;;;15.67;11.50;;;7.10;52.00;;;;;;5061134;28;20029;-82
2021/01/16 11:59:07;;;;;;;12.80;8.80;;;7.20;50.80;;;;;;5065844;28;20033;-81
2021/01/16 12:01:38;;;;;;;12.63;8.37;;;7.20;51.10;;;;;;5078965;28;20705;-81
2021/01/16 12:04:05;;;;;;;11.63;7.67;;;7.40;50.60;;;;;;5076756;28;20033;-82
2021/01/16 12:06:33;;;;;;;12.57;9.20;;;7.20;50.40;;;;;;5078463;28;20032;-81
2021/01/16 12:09:04;;;;;;;10.47;8.40;;;7.00;50.40;;;;;;5096053;28;20498;-83
2021/01/16 12:11:30;;;;;;;16.07;8.77;;;6.70;50.40;;;;;;5060825;28;20048;-82
2021/01/16 12:13:57;;;;;;;7.10;5.10;;;6.70;50.50;;;;;;5066727;28;20029;-82
2021/01/16 12:16:23;;;;;;;6.57;5.20;;;6.80;50.30;;;;;;5076511;28;20025;-82
2021/01/16 12:18:49;;;;;;;6.77;4.97;;;6.80;49.60;;;;;;5073467;28;20017;-82
2021/01/16 12:21:16;;;;;;;6.10;4.73;;;6.80;49.40;;;;;;5091735;28;20024;-83
2021/01/16 12:23:46;;;;;;;7.37;4.63;;;6.80;49.00;;;;;;5077725;28;20067;-83
2021/01/16 12:26:15;;;;;;;9.90;6.10;;;6.60;48.90;;;;;;5057089;28;20020;-83
2021/01/16 12:28:47;;;;;;;10.90;6.60;;;6.60;49.00;;;;;;5061286;28;20027;-83
2021/01/16 12:31:23;;;;;;;7.30;4.77;;;6.60;48.40;;;;;;5071848;28;20095;-82
2021/01/16 12:33:50;;;;;;;5.90;4.13;;;6.50;48.30;;;;;;5074840;28;20043;-82
2021/01/16 12:36:17;;;;;;;6.40;4.57;;;6.70;48.30;;;;;;5074518;28;20050;-82
2021/01/16 12:38:47;;;;;;;5.93;4.43;;;6.80;48.20;;;;;;5074496;28;20020;-82
2021/01/16 12:41:23;;;;;;;6.70;5.27;;;6.80;47.60;;;;;;5056271;28;20029;-82
2021/01/16 12:43:51;;;;;;;5.97;4.30;;;6.90;47.70;;;;;;5061144;28;20029;-82
2021/01/16 12:46:21;;;;;;;12.70;9.90;;;7.00;47.80;;;;;;5059115;28;20037;-82
2021/01/16 12:48:48;;;;;;;19.77;12.67;;;7.10;48.10;;;;;;5066646;28;20024;-82
2021/01/16 12:51:17;;;;;;;14.93;11.30;;;7.20;48.40;;;;;;5087033;28;20036;-83
2021/01/16 12:53:44;;;;;;;17.07;12.80;;;7.30;48.60;;;;;;5078417;28;20035;-83